createdAt,value
2019-04-10T00:00:52.990Z,15.37
2019-04-10T00:03:56.849Z,15.40
2019-04-10T00:07:09.475Z,15.40
2019-04-10T00:10:05.773Z,14.30
2019-04-10T00:13:10.063Z,14.60
2019-04-10T00:16:13.951Z,14.00
2019-04-10T00:19:18.272Z,13.90
2019-04-10T00:22:22.461Z,12.17
2019-04-10T00:25:26.586Z,12.83
2019-04-10T00:28:30.115Z,12.43
2019-04-10T00:31:34.038Z,12.17
2019-04-10T00:34:37.908Z,12.27
2019-04-10T00:37:42.865Z,12.00
2019-04-10T00:40:47.798Z,11.27
2019-04-10T00:43:51.804Z,11.23
2019-04-10T00:46:55.650Z,11.77
2019-04-10T00:49:59.824Z,10.50
2019-04-10T00:53:03.411Z,10.10
2019-04-10T00:56:08.408Z,10.13
2019-04-10T00:59:12.370Z,10.50
2019-04-10T01:02:16.548Z,10.83
2019-04-10T01:05:20.297Z,9.90
2019-04-10T01:08:24.505Z,10.07
2019-04-10T01:11:28.469Z,9.83
2019-04-10T01:14:32.069Z,9.50
2019-04-10T01:17:35.656Z,8.70
2019-04-10T01:20:39.799Z,8.80
2019-04-10T01:23:43.388Z,9.07
2019-04-10T01:26:47.573Z,8.83
2019-04-10T01:29:51.568Z,8.33
2019-04-10T01:32:56.419Z,8.67
2019-04-10T01:36:00.097Z,8.60
2019-04-10T01:39:04.133Z,7.47
2019-04-10T01:42:08.226Z,8.30
2019-04-10T01:45:12.048Z,7.70
2019-04-10T01:48:15.896Z,7.63
2019-04-10T01:51:19.562Z,7.43
2019-04-10T01:54:23.146Z,6.90
2019-04-10T01:57:26.733Z,7.40
2019-04-10T02:00:31.890Z,6.63
2019-04-10T02:03:36.262Z,7.40
2019-04-10T02:06:41.249Z,6.70
2019-04-10T02:09:45.873Z,6.57
2019-04-10T02:12:50.682Z,6.53
2019-04-10T02:15:54.518Z,6.67
2019-04-10T02:18:58.412Z,6.33
2019-04-10T02:22:02.459Z,6.37
2019-04-10T02:25:07.322Z,6.37
2019-04-10T02:28:11.092Z,6.60
2019-04-10T02:31:15.088Z,5.83
2019-04-10T02:34:19.440Z,5.97
2019-04-10T02:37:25.053Z,6.40
2019-04-10T02:40:30.873Z,5.70
2019-04-10T02:43:36.004Z,6.30
2019-04-10T02:46:41.229Z,6.13
2019-04-10T02:49:47.105Z,5.50
2019-04-10T02:52:51.104Z,5.90
2019-04-10T02:55:55.801Z,5.03
2019-04-10T02:59:00.212Z,5.23
2019-04-10T03:02:04.444Z,4.83
2019-04-10T03:05:09.376Z,5.60
2019-04-10T03:08:15.463Z,5.20
2019-04-10T03:11:20.030Z,4.90
2019-04-10T03:14:24.448Z,4.50
2019-04-10T03:17:28.209Z,5.20
2019-04-10T03:20:32.195Z,4.80
2019-04-10T03:23:36.116Z,4.50
2019-04-10T03:26:39.692Z,4.60
2019-04-10T03:29:44.884Z,4.40
2019-04-10T03:33:06.099Z,4.60
2019-04-10T03:36:09.442Z,4.40
2019-04-10T03:39:13.447Z,4.23
2019-04-10T03:42:17.023Z,4.37
2019-04-10T03:45:20.892Z,4.17
2019-04-10T03:48:25.203Z,4.27
2019-04-10T03:51:28.771Z,3.97
2019-04-10T03:54:33.021Z,3.60
2019-04-10T03:57:38.548Z,3.90
2019-04-10T04:00:42.776Z,3.87
2019-04-10T04:03:46.907Z,4.07
2019-04-10T04:06:50.421Z,3.87
2019-04-10T04:09:54.288Z,3.67
2019-04-10T04:12:57.852Z,3.70
2019-04-10T04:16:02.265Z,7.53
2019-04-10T04:19:05.998Z,19.73
2019-04-10T04:22:09.547Z,17.10
2019-04-10T04:25:13.572Z,16.90
2019-04-10T04:28:17.549Z,25.33
2019-04-10T04:31:21.138Z,24.27
2019-04-10T04:34:25.014Z,14.30
2019-04-10T04:37:28.671Z,12.40
2019-04-10T04:40:33.475Z,9.00
2019-04-10T04:43:37.737Z,6.43
2019-04-10T04:46:41.320Z,4.07
2019-04-10T04:49:46.673Z,6.07
2019-04-10T04:52:50.317Z,6.67
2019-04-10T04:55:53.897Z,6.33
2019-04-10T04:58:57.793Z,4.50
2019-04-10T05:02:01.419Z,3.50
2019-04-10T05:05:06.633Z,4.63
2019-04-10T05:08:10.266Z,12.70
2019-04-10T05:11:13.978Z,13.30
2019-04-10T05:14:17.776Z,13.43
2019-04-10T05:17:22.190Z,14.23
2019-04-10T05:20:38.759Z,13.87
2019-04-10T05:23:31.563Z,14.30
2019-04-10T05:26:36.268Z,13.17
2019-04-10T05:29:40.868Z,13.03
2019-04-10T05:32:44.605Z,12.40
2019-04-10T05:35:48.827Z,11.93
2019-04-10T05:38:52.862Z,11.23
2019-04-10T05:41:56.859Z,11.73
2019-04-10T05:45:00.793Z,12.13
2019-04-10T05:48:04.374Z,11.03
2019-04-10T05:51:09.072Z,10.60
2019-04-10T05:54:13.439Z,10.37
2019-04-10T05:57:18.008Z,10.40
2019-04-10T06:00:23.012Z,10.10
2019-04-10T06:03:28.139Z,9.53
2019-04-10T06:06:32.633Z,8.43
2019-04-10T06:09:36.597Z,9.00
2019-04-10T06:12:40.420Z,8.70
2019-04-10T06:15:45.362Z,8.73
2019-04-10T06:18:49.347Z,9.30
2019-04-10T06:21:52.987Z,8.13
2019-04-10T06:24:56.886Z,8.90
2019-04-10T06:28:01.127Z,8.33
2019-04-10T06:31:04.827Z,7.67
2019-04-10T06:34:08.979Z,8.43
2019-04-10T06:37:13.566Z,7.50
2019-04-10T06:40:21.086Z,7.80
2019-04-10T06:43:23.722Z,7.70
2019-04-10T06:46:28.418Z,7.07
2019-04-10T06:49:33.150Z,7.57
2019-04-10T06:52:36.816Z,6.70
2019-04-10T06:55:40.551Z,7.33
2019-04-10T06:58:44.532Z,6.73
2019-04-10T07:01:52.833Z,6.13
2019-04-10T07:04:56.051Z,7.63
2019-04-10T07:08:09.985Z,6.63
2019-04-10T07:11:09.031Z,6.27
2019-04-10T07:14:13.519Z,6.00
2019-04-10T07:17:16.094Z,6.37
2019-04-10T07:20:20.954Z,6.07
2019-04-10T07:23:28.801Z,5.97
2019-04-10T07:26:37.785Z,5.90
2019-04-10T07:29:36.375Z,5.87
2019-04-10T07:32:43.331Z,5.70
2019-04-10T07:35:46.379Z,5.43
2019-04-10T07:38:53.905Z,5.43
2019-04-10T07:41:55.798Z,5.43
2019-04-10T07:44:59.360Z,4.63
2019-04-10T07:48:02.927Z,5.33
2019-04-10T07:51:06.989Z,5.43
2019-04-10T07:54:10.608Z,4.97
2019-04-10T07:57:14.168Z,4.77
2019-04-10T08:00:18.123Z,5.00
2019-04-10T08:03:22.852Z,5.40
2019-04-10T08:06:27.715Z,5.10
2019-04-10T08:09:31.403Z,4.60
2019-04-10T08:12:42.403Z,5.03
2019-04-10T08:15:41.225Z,4.57
2019-04-10T08:18:45.707Z,4.87
2019-04-10T08:21:49.445Z,4.33
2019-04-10T08:24:53.562Z,4.53
2019-04-10T08:27:58.449Z,4.00
2019-04-10T08:31:02.219Z,4.00
2019-04-10T08:34:06.670Z,4.07
2019-04-10T08:37:11.010Z,4.23
2019-04-10T08:40:15.745Z,4.33
2019-04-10T08:43:20.180Z,4.30
2019-04-10T08:46:24.052Z,4.30
2019-04-10T08:49:28.315Z,4.20
2019-04-10T08:52:32.567Z,4.07
2019-04-10T08:55:36.464Z,3.90
2019-04-10T08:58:41.062Z,3.73
2019-04-10T09:01:45.420Z,3.70
2019-04-10T09:04:49.640Z,3.63
2019-04-10T09:07:53.195Z,3.90
2019-04-10T09:10:57.079Z,3.60
2019-04-10T09:14:01.249Z,3.63
2019-04-10T09:17:05.180Z,4.07
2019-04-10T09:20:09.122Z,3.53
2019-04-10T09:23:22.576Z,3.43
2019-04-10T09:26:18.183Z,3.43
2019-04-10T09:29:24.170Z,3.40
2019-04-10T09:32:27.107Z,3.07
2019-04-10T09:35:30.923Z,3.27
2019-04-10T09:38:34.869Z,3.07
2019-04-10T09:41:38.544Z,3.03
2019-04-10T09:44:42.203Z,2.97
2019-04-10T09:47:46.136Z,3.20
2019-04-10T09:50:50.279Z,2.93
2019-04-10T09:53:54.164Z,3.00
2019-04-10T09:56:57.699Z,3.07
2019-04-10T10:00:01.268Z,2.60
2019-04-10T10:03:05.556Z,2.90
2019-04-10T10:06:09.221Z,3.10
2019-04-10T10:09:13.056Z,2.83
2019-04-10T10:12:16.628Z,2.70
2019-04-10T10:15:21.062Z,2.70
2019-04-10T10:18:25.616Z,2.67
2019-04-10T10:21:29.272Z,2.60
2019-04-10T10:24:33.059Z,2.40
2019-04-10T10:27:36.724Z,2.73
2019-04-10T10:30:40.288Z,2.63
2019-04-10T10:33:44.635Z,2.77
2019-04-10T10:36:50.639Z,2.50
2019-04-10T10:39:53.516Z,2.43
2019-04-10T10:42:58.084Z,2.60
2019-04-10T10:46:03.036Z,2.17
2019-04-10T10:49:06.863Z,2.60
2019-04-10T10:52:11.146Z,2.30
2019-04-10T10:55:15.662Z,2.40
2019-04-10T10:58:19.688Z,2.30
2019-04-10T11:01:24.150Z,2.30
2019-04-10T11:04:27.742Z,2.30
2019-04-10T11:07:31.371Z,2.23
2019-04-10T11:10:35.229Z,2.30
2019-04-10T11:13:39.258Z,2.30
2019-04-10T11:16:43.033Z,2.30
2019-04-10T11:19:47.325Z,2.30
2019-04-10T11:22:51.901Z,2.20
2019-04-10T11:25:57.593Z,2.10
2019-04-10T11:29:01.591Z,1.93
2019-04-10T11:32:06.648Z,2.00
2019-04-10T11:35:11.182Z,2.00
2019-04-10T11:38:16.188Z,2.20
2019-04-10T11:41:21.006Z,2.00
2019-04-10T11:44:24.959Z,2.10
2019-04-10T11:47:29.172Z,2.20
2019-04-10T11:50:34.810Z,2.17
2019-04-10T11:53:43.971Z,2.10
2019-04-10T11:56:47.902Z,2.03
2019-04-10T11:59:49.711Z,1.90
2019-04-10T12:02:57.183Z,2.00
2019-04-10T12:05:59.751Z,1.90
2019-04-10T12:09:32.795Z,2.00
2019-04-10T12:12:09.415Z,1.83
2019-04-10T12:15:12.989Z,1.90
2019-04-10T12:18:16.552Z,1.80
2019-04-10T12:21:20.448Z,1.80
2019-04-10T12:24:24.344Z,1.57
2019-04-10T12:27:27.928Z,1.93
2019-04-10T12:30:31.898Z,1.70
2019-04-10T12:33:35.968Z,2.17
2019-04-10T12:36:39.641Z,1.60
2019-04-10T12:39:43.563Z,1.87
2019-04-10T12:42:48.255Z,1.70
2019-04-10T12:45:52.652Z,1.60
2019-04-10T12:48:56.290Z,1.90
2019-04-10T12:52:00.326Z,1.63
2019-04-10T12:55:04.188Z,1.60
2019-04-10T12:58:15.294Z,1.70
2019-04-10T13:01:14.255Z,1.80
2019-04-10T13:04:18.051Z,1.63
2019-04-10T13:07:21.869Z,1.70
2019-04-10T13:10:25.440Z,1.50
2019-04-10T13:13:30.255Z,1.70
2019-04-10T13:16:34.261Z,1.83
2019-04-10T13:19:37.802Z,1.50
2019-04-10T13:22:42.293Z,1.60
2019-04-10T13:25:55.522Z,1.70
2019-04-10T13:28:51.918Z,1.50
2019-04-10T13:31:56.152Z,1.63
2019-04-10T13:35:00.081Z,1.70
2019-04-10T13:38:03.972Z,1.47
2019-04-10T13:41:08.177Z,1.50
2019-04-10T13:44:11.712Z,1.60
2019-04-10T13:47:15.486Z,1.50
2019-04-10T13:50:19.101Z,1.70
2019-04-10T13:53:23.788Z,1.70
2019-04-10T13:56:27.511Z,1.77
2019-04-10T13:59:31.255Z,1.33
2019-04-10T14:02:37.573Z,1.60
2019-04-10T14:05:41.320Z,1.63
2019-04-10T14:09:04.435Z,1.40
2019-04-10T14:11:51.389Z,1.60
2019-04-10T14:14:55.181Z,1.50
2019-04-10T14:17:59.789Z,1.60
2019-04-10T14:21:09.717Z,1.70
2019-04-10T14:24:09.868Z,1.67
2019-04-10T14:27:16.619Z,1.60
2019-04-10T14:30:29.343Z,1.60
2019-04-10T14:33:32.860Z,1.60
2019-04-10T14:36:36.421Z,1.50
2019-04-10T14:39:41.147Z,1.50
2019-04-10T14:42:45.858Z,1.60
2019-04-10T14:45:49.969Z,1.47
2019-04-10T14:48:54.444Z,1.77
2019-04-10T14:51:58.901Z,1.50
2019-04-10T14:55:02.490Z,1.80
2019-04-10T14:58:19.024Z,1.40
2019-04-10T15:01:13.622Z,1.50
2019-04-10T15:04:17.499Z,1.50
2019-04-10T15:07:21.866Z,1.97
2019-04-10T15:10:25.413Z,2.40
2019-04-10T15:13:29.679Z,2.33
2019-04-10T15:16:33.636Z,2.77
2019-04-10T15:19:37.505Z,1.63
2019-04-10T15:22:42.131Z,1.50
2019-04-10T15:25:47.130Z,1.50
2019-04-10T15:28:51.921Z,34.30
2019-04-10T15:31:55.950Z,5.07
2019-04-10T15:34:59.944Z,21.37
2019-04-10T15:38:04.254Z,8.57
2019-04-10T15:41:08.472Z,4.17
2019-04-10T15:44:12.490Z,2.67
2019-04-10T15:47:20.804Z,2.60
2019-04-10T15:50:22.097Z,2.50
2019-04-10T15:53:26.510Z,2.37
2019-04-10T15:56:30.173Z,12.40
2019-04-10T15:59:34.480Z,3.07
2019-04-10T16:02:38.425Z,2.90
2019-04-10T16:05:42.112Z,4.77
2019-04-10T16:08:45.672Z,2.60
2019-04-10T16:11:58.417Z,2.70
2019-04-10T16:15:02.882Z,2.20
2019-04-10T16:18:11.405Z,2.00
2019-04-10T16:21:15.889Z,46.63
2019-04-10T16:24:20.641Z,8.23
2019-04-10T16:27:24.402Z,6.47
2019-04-10T16:30:28.643Z,16.43
2019-04-10T16:33:32.204Z,5.23
2019-04-10T16:36:35.779Z,9.60
2019-04-10T16:39:40.353Z,2.57
2019-04-10T16:42:44.224Z,5.03
2019-04-10T16:45:48.985Z,7.93
2019-04-10T16:48:52.713Z,6.53
2019-04-10T16:51:56.737Z,5.90
2019-04-10T16:55:00.681Z,5.87
2019-04-10T16:58:04.296Z,5.73
2019-04-10T17:01:08.476Z,5.53
2019-04-10T17:04:12.413Z,5.20
2019-04-10T17:07:16.915Z,5.27
2019-04-10T17:10:24.840Z,4.97
2019-04-10T17:13:28.682Z,5.70
2019-04-10T17:16:33.545Z,4.47
2019-04-10T17:19:46.601Z,4.50
2019-04-10T17:22:45.793Z,5.60
2019-04-10T17:25:48.754Z,4.07
2019-04-10T17:28:52.610Z,2.87
2019-04-10T17:31:57.104Z,2.73
2019-04-10T17:35:03.154Z,2.60
2019-04-10T17:38:06.942Z,2.03
2019-04-10T17:41:11.217Z,2.43
2019-04-10T17:44:15.799Z,2.77
2019-04-10T17:47:20.885Z,2.60
2019-04-10T17:50:25.999Z,2.93
2019-04-10T17:53:31.417Z,2.57
2019-04-10T17:56:36.083Z,2.80
2019-04-10T17:59:40.707Z,2.60
2019-04-10T18:02:45.173Z,2.60
2019-04-10T18:05:50.823Z,3.23
2019-04-10T18:08:54.642Z,3.00
2019-04-10T18:12:00.834Z,2.77
2019-04-10T18:15:06.080Z,19.47
2019-04-10T18:18:09.841Z,33.47
2019-04-10T18:21:13.487Z,24.17
2019-04-10T18:24:17.070Z,41.67
2019-04-10T18:27:20.920Z,43.77
2019-04-10T18:30:24.503Z,34.43
2019-04-10T18:33:28.751Z,12.37
2019-04-10T18:36:32.431Z,7.43
2019-04-10T18:39:36.684Z,3.53
2019-04-10T18:42:40.576Z,3.30
2019-04-10T18:45:54.824Z,3.00
2019-04-10T18:48:51.284Z,4.47
2019-04-10T18:51:56.346Z,3.47
2019-04-10T18:55:00.493Z,18.03
2019-04-10T18:58:05.894Z,28.63
2019-04-10T19:01:28.770Z,27.57
2019-04-10T19:04:45.456Z,26.17
2019-04-10T19:07:50.247Z,5.20
2019-04-10T19:11:08.113Z,5.13
2019-04-10T19:13:59.915Z,3.80
2019-04-10T19:17:03.679Z,4.30
2019-04-10T19:20:08.931Z,3.40
2019-04-10T19:23:13.180Z,5.20
2019-04-10T19:26:21.056Z,5.30
2019-04-10T19:29:25.435Z,4.73
2019-04-10T19:32:33.292Z,4.30
2019-04-10T19:35:37.298Z,3.43
2019-04-10T19:38:41.204Z,4.03
2019-04-10T19:41:44.927Z,3.40
2019-04-10T19:44:48.514Z,3.37
2019-04-10T19:47:52.816Z,3.53
2019-04-10T19:50:57.457Z,3.53
2019-04-10T19:54:03.131Z,3.43
2019-04-10T19:57:06.938Z,3.00
2019-04-10T20:00:12.524Z,3.00
2019-04-10T20:03:16.484Z,3.17
2019-04-10T20:06:22.296Z,3.10
2019-04-10T20:09:26.041Z,3.27
2019-04-10T20:12:30.701Z,2.83
2019-04-10T20:15:34.578Z,2.97
2019-04-10T20:18:39.046Z,2.90
2019-04-10T20:21:44.012Z,6.10
2019-04-10T20:24:47.586Z,19.70
2019-04-10T20:27:52.133Z,14.40
2019-04-10T20:30:56.769Z,9.17
2019-04-10T20:34:01.556Z,217.70
2019-04-10T20:37:08.443Z,135.77
2019-04-10T20:40:11.884Z,80.40
2019-04-10T20:43:15.587Z,79.60
2019-04-10T20:46:20.209Z,72.30
2019-04-10T20:49:23.829Z,70.27
2019-04-10T20:52:28.375Z,66.57
2019-04-10T20:55:33.273Z,64.70
2019-04-10T20:58:38.203Z,62.00
2019-04-10T21:01:41.798Z,58.70
2019-04-10T21:04:54.436Z,57.60
2019-04-10T21:07:50.776Z,54.57
2019-04-10T21:10:54.791Z,53.53
2019-04-10T21:13:58.803Z,52.77
2019-04-10T21:17:02.486Z,49.43
2019-04-10T21:20:07.723Z,47.80
2019-04-10T21:23:13.132Z,44.93
2019-04-10T21:26:16.729Z,44.03
2019-04-10T21:29:38.540Z,42.53
2019-04-10T21:33:07.983Z,40.43
2019-04-10T21:36:11.674Z,36.37
2019-04-10T21:39:15.270Z,36.50
2019-04-10T21:42:22.747Z,36.93
2019-04-10T21:45:24.666Z,34.17
2019-04-10T21:48:28.256Z,32.27
2019-04-10T21:51:33.461Z,32.43
2019-04-10T21:54:47.119Z,30.80
2019-04-10T21:57:43.160Z,29.57
2019-04-10T22:01:15.662Z,28.00
2019-04-10T22:04:19.444Z,9.47
2019-04-10T22:07:42.004Z,34.47
2019-04-10T22:10:48.231Z,43.23
2019-04-10T22:13:52.676Z,53.37
2019-04-10T22:16:58.129Z,58.30
2019-04-10T22:20:03.259Z,63.83
2019-04-10T22:23:07.613Z,56.43
2019-04-10T22:26:11.678Z,57.60
2019-04-10T22:29:15.643Z,53.27
2019-04-10T22:32:19.970Z,50.57
2019-04-10T22:35:23.815Z,48.20
2019-04-10T22:38:27.490Z,44.87
2019-04-10T22:41:32.706Z,45.07
2019-04-10T22:44:41.930Z,41.07
2019-04-10T22:47:41.698Z,40.63
2019-04-10T22:50:45.304Z,40.40
2019-04-10T22:53:49.961Z,37.73
2019-04-10T22:56:54.449Z,35.83
2019-04-10T22:59:59.555Z,35.90
2019-04-10T23:03:03.491Z,34.90
2019-04-10T23:06:07.074Z,33.30
2019-04-10T23:09:12.304Z,33.03
2019-04-10T23:12:16.275Z,32.10
2019-04-10T23:15:20.153Z,31.10
2019-04-10T23:18:24.047Z,28.83
2019-04-10T23:21:28.283Z,28.30
2019-04-10T23:24:31.992Z,28.53
2019-04-10T23:27:35.680Z,27.17
2019-04-10T23:30:39.302Z,26.57
2019-04-10T23:33:43.966Z,26.63
2019-04-10T23:36:48.652Z,26.30
2019-04-10T23:39:52.585Z,23.60
2019-04-10T23:43:08.082Z,24.17
2019-04-10T23:46:02.157Z,23.20
2019-04-10T23:49:05.783Z,23.20
2019-04-10T23:52:09.699Z,20.93
2019-04-10T23:55:13.665Z,22.60
2019-04-10T23:58:18.037Z,21.63
